Terminal Aerodrome Forecast
Issued by NWS

Home | Current Version | Previous Version | Text Only | Print | Product List | Glossary On
Versions: 1 2 3 4 5 6 7 8 9 10 11 12 13 14 15 16 17 18 19 20 21 22 23
000
FTUS46 KPQR 250520
TAFONP
TAF
KONP 250520Z 2506/2606 VRB03KT P6SM MIFG SKC
      TEMPO 2506/2510 3SM BR
     FM251200 09006KT 6SM BR SCT003
     FM251800 36010KT P6SM SKC
     FM252200 36012G20KT P6SM SKC=

USA.gov is the U.S. government's official web portal to all federal, state and local government web resources and services.